Time;durP1;ratioP1;P1;durP2;ratioP2;P2;SDS_P1;SDS_P2;PMS_P1;PMS_P2;Temp;Humidity;BMP_temperature;BMP_pressure;BME280_temperature;BME280_humidity;BME280_pressure;Samples;Min_cycle;Max_cycle;Signal;HPM_P1;HPM_P2
2023/06/22 00:02:14;;;;;;;134.67;128.73;;;17.80;99.90;;;;;;4942468;28;20213;-84
2023/06/22 00:04:40;;;;;;;146.23;139.30;;;17.70;99.90;;;;;;4925959;28;20253;-86
2023/06/22 00:07:06;;;;;;;141.47;134.57;;;17.70;99.90;;;;;;4926840;29;20217;-84
2023/06/22 00:09:32;;;;;;;132.93;126.70;;;17.80;99.90;;;;;;4926059;29;21134;-84
2023/06/22 00:12:01;;;;;;;136.17;124.30;;;17.90;99.90;;;;;;4942336;28;20232;-84
2023/06/22 00:14:27;;;;;;;135.47;128.77;;;17.90;99.90;;;;;;4923532;29;20220;-84
2023/06/22 00:16:54;;;;;;;138.43;131.47;;;18.00;99.90;;;;;;4926151;28;21102;-84
2023/06/22 00:19:21;;;;;;;139.90;130.93;;;17.90;99.90;;;;;;4942883;29;20249;-84
2023/06/22 00:21:53;;;;;;;137.07;130.50;;;17.90;99.90;;;;;;4910600;29;20224;-84
2023/06/22 00:24:22;;;;;;;141.83;134.63;;;17.90;99.90;;;;;;4941631;28;20225;-85
2023/06/22 00:26:48;;;;;;;145.87;138.27;;;18.00;99.90;;;;;;4926102;29;20265;-85
2023/06/22 00:29:14;;;;;;;148.37;141.90;;;18.00;99.90;;;;;;4928021;28;20230;-84
2023/06/22 00:31:40;;;;;;;158.50;147.33;;;18.00;99.90;;;;;;4927236;28;20194;-85
2023/06/22 00:34:08;;;;;;;144.43;135.90;;;18.00;99.90;;;;;;4925674;29;20205;-84
2023/06/22 00:36:34;;;;;;;143.47;131.33;;;18.10;99.90;;;;;;4924542;29;20234;-84
2023/06/22 00:39:00;;;;;;;151.37;138.73;;;18.00;99.90;;;;;;4924622;28;20703;-85
2023/06/22 00:41:28;;;;;;;151.23;142.80;;;17.90;99.90;;;;;;4923587;29;20340;-85
2023/06/22 00:43:54;;;;;;;155.27;147.90;;;18.00;99.90;;;;;;4893606;29;20190;-85
2023/06/22 00:46:22;;;;;;;159.33;153.03;;;17.90;99.90;;;;;;4940831;28;20194;-85
2023/06/22 00:48:49;;;;;;;152.83;142.00;;;17.90;99.90;;;;;;4925958;29;20260;-84
2023/06/22 00:51:15;;;;;;;150.70;143.77;;;17.90;99.90;;;;;;4942804;28;20241;-84
2023/06/22 00:53:43;;;;;;;169.60;161.07;;;17.90;99.90;;;;;;4911207;29;20226;-84
2023/06/22 00:56:09;;;;;;;167.70;160.77;;;17.80;99.90;;;;;;4922321;28;20355;-85
2023/06/22 00:58:36;;;;;;;170.63;159.20;;;17.90;99.90;;;;;;4939713;29;20722;-86
2023/06/22 01:01:02;;;;;;;169.17;162.30;;;17.80;99.90;;;;;;4926376;28;20246;-85
2023/06/22 01:03:28;;;;;;;177.13;168.80;;;17.80;99.90;;;;;;4910683;29;20225;-85
2023/06/22 01:06:02;;;;;;;187.10;173.07;;;17.90;99.90;;;;;;4925549;28;20253;-86
2023/06/22 01:09:00;;;;;;;175.33;168.13;;;17.80;99.90;;;;;;4929852;29;20230;-84
2023/06/22 01:11:50;;;;;;;174.80;166.13;;;17.80;99.90;;;;;;4930624;28;20225;-85
2023/06/22 01:14:52;;;;;;;173.00;163.20;;;17.80;99.90;;;;;;4929633;29;20229;-84
2023/06/22 01:17:20;;;;;;;175.00;163.77;;;17.70;99.90;;;;;;4934091;28;20344;-85
2023/06/22 01:19:57;;;;;;;183.03;173.40;;;17.60;99.90;;;;;;4945824;28;20227;-84
2023/06/22 01:22:28;;;;;;;190.07;182.43;;;17.50;99.90;;;;;;4930860;29;20512;-84
2023/06/22 01:25:09;;;;;;;187.40;174.53;;;17.40;99.90;;;;;;4929625;29;20226;-84
2023/06/22 01:28:05;;;;;;;176.23;168.33;;;17.40;99.90;;;;;;4944824;28;20268;-84
2023/06/22 01:30:33;;;;;;;180.83;172.93;;;17.30;99.90;;;;;;4945633;28;20312;-85
2023/06/22 01:33:02;;;;;;;192.67;183.17;;;17.20;99.90;;;;;;4945302;28;20230;-85
2023/06/22 01:35:29;;;;;;;185.53;175.00;;;17.20;99.90;;;;;;4945454;28;20236;-85
2023/06/22 01:37:56;;;;;;;193.97;187.10;;;17.20;99.90;;;;;;4913430;28;20256;-85
2023/06/22 01:40:22;;;;;;;192.43;185.07;;;17.10;99.90;;;;;;4945190;29;20280;-84
2023/06/22 01:42:50;;;;;;;203.50;193.67;;;17.00;99.90;;;;;;4928789;29;20241;-84
2023/06/22 01:45:17;;;;;;;208.90;197.47;;;17.00;99.90;;;;;;4930650;28;20225;-85
2023/06/22 01:47:43;;;;;;;214.17;204.97;;;17.00;99.90;;;;;;4930006;28;20242;-85
2023/06/22 01:50:09;;;;;;;211.13;201.30;;;17.00;99.90;;;;;;4897829;29;20222;-85
2023/06/22 01:52:35;;;;;;;229.67;221.27;;;17.10;99.90;;;;;;4929552;29;20232;-85
2023/06/22 01:55:01;;;;;;;220.87;209.70;;;17.20;99.90;;;;;;4929089;29;20261;-84
2023/06/22 01:57:27;;;;;;;229.50;217.87;;;17.20;99.90;;;;;;4910111;29;20300;-85
2023/06/22 02:00:01;;;;;;;234.07;223.10;;;17.20;99.90;;;;;;4927485;29;20237;-86
2023/06/22 02:02:36;;;;;;;246.90;234.37;;;17.20;99.90;;;;;;4928626;29;20377;-85
2023/06/22 02:05:07;;;;;;;244.17;228.63;;;17.20;99.90;;;;;;4929826;28;20649;-85
2023/06/22 02:07:58;;;;;;;240.40;227.27;;;17.20;99.90;;;;;;4945395;29;20206;-85
2023/06/22 02:10:25;;;;;;;234.80;226.10;;;17.20;99.90;;;;;;4937862;29;20310;-85
2023/06/22 02:12:52;;;;;;;250.43;240.10;;;17.20;99.90;;;;;;4927984;29;20230;-84
2023/06/22 02:15:18;;;;;;;249.07;239.03;;;17.20;99.90;;;;;;4927905;29;20437;-84
2023/06/22 02:17:44;;;;;;;258.23;244.63;;;17.30;99.90;;;;;;4913106;29;20766;-85
2023/06/22 02:20:14;;;;;;;249.27;237.47;;;17.20;99.90;;;;;;4928251;29;20341;-84
2023/06/22 02:22:41;;;;;;;282.97;271.67;;;17.20;99.90;;;;;;4944616;28;20201;-85
2023/06/22 02:25:07;;;;;;;266.57;253.90;;;17.20;99.90;;;;;;4930176;29;20206;-85
2023/06/22 02:27:33;;;;;;;252.10;240.43;;;17.20;99.90;;;;;;4928700;29;20288;-84
2023/06/22 02:29:58;;;;;;;276.47;259.13;;;17.20;99.90;;;;;;4927899;29;20229;-85
2023/06/22 02:32:24;;;;;;;270.43;257.87;;;17.10;99.90;;;;;;4928042;29;20276;-85
2023/06/22 02:34:50;;;;;;;262.43;251.43;;;17.10;99.90;;;;;;4928412;28;20670;-85
2023/06/22 02:37:19;;;;;;;266.80;253.33;;;17.00;99.90;;;;;;4928941;29;20198;-83
2023/06/22 02:39:48;;;;;;;254.87;242.97;;;17.00;99.90;;;;;;4897434;29;20222;-85
2023/06/22 02:42:15;;;;;;;269.57;258.33;;;17.00;99.90;;;;;;4912697;29;20701;-86
2023/06/22 02:44:41;;;;;;;265.57;250.20;;;17.00;99.90;;;;;;4912844;29;20226;-85
2023/06/22 02:47:07;;;;;;;267.33;252.20;;;16.90;99.90;;;;;;4928244;29;20734;-84
2023/06/22 02:49:33;;;;;;;267.73;257.53;;;16.90;99.90;;;;;;4941787;29;21004;-87
2023/06/22 02:51:59;;;;;;;263.90;253.90;;;16.90;99.90;;;;;;4927873;29;20226;-85
2023/06/22 02:54:25;;;;;;;254.37;242.70;;;16.80;99.90;;;;;;4927329;29;20225;-85
2023/06/22 02:56:53;;;;;;;268.07;246.60;;;16.70;99.90;;;;;;4943095;28;20236;-86
2023/06/22 02:59:25;;;;;;;260.93;240.80;;;16.60;99.90;;;;;;4927184;29;20305;-86
2023/06/22 03:01:50;;;;;;;241.87;230.37;;;16.50;99.90;;;;;;4911106;28;20253;-86
2023/06/22 03:04:16;;;;;;;228.10;219.53;;;16.50;99.90;;;;;;4911628;29;20448;-85
2023/06/22 03:06:42;;;;;;;240.93;231.37;;;16.50;99.90;;;;;;4927563;28;20699;-88
2023/06/22 03:09:08;;;;;;;231.17;222.90;;;16.40;99.90;;;;;;4928462;28;20252;-85
2023/06/22 03:11:34;;;;;;;219.73;211.63;;;16.40;99.90;;;;;;4928774;28;20213;-86
2023/06/22 03:14:01;;;;;;;221.03;212.53;;;16.40;99.90;;;;;;4943205;28;20221;-86
2023/06/22 03:16:27;;;;;;;209.83;198.80;;;16.30;99.90;;;;;;4927909;29;20198;-85
2023/06/22 03:18:55;;;;;;;219.23;207.70;;;16.20;99.90;;;;;;4942742;28;20226;-85
2023/06/22 03:21:31;;;;;;;233.37;222.47;;;16.20;99.90;;;;;;4929140;28;20236;-85
2023/06/22 03:24:04;;;;;;;215.23;203.30;;;16.20;99.90;;;;;;4942201;28;20306;-86
2023/06/22 03:26:29;;;;;;;224.50;203.00;;;16.00;99.90;;;;;;4927300;29;21033;-86
2023/06/22 03:28:55;;;;;;;200.10;188.33;;;16.00;99.90;;;;;;4911039;28;20271;-84
2023/06/22 03:31:21;;;;;;;202.57;191.47;;;15.90;99.90;;;;;;4943845;29;20201;-84
2023/06/22 03:33:49;;;;;;;200.93;189.37;;;15.90;99.90;;;;;;4942638;28;20229;-85
2023/06/22 03:36:24;;;;;;;208.97;192.83;;;15.90;99.90;;;;;;4942600;28;20308;-85
2023/06/22 03:38:51;;;;;;;200.33;188.80;;;15.90;99.90;;;;;;4942863;28;20226;-85
2023/06/22 03:41:17;;;;;;;197.83;185.87;;;15.90;99.90;;;;;;4938677;28;20253;-85
2023/06/22 03:43:43;;;;;;;206.57;197.53;;;15.90;99.90;;;;;;4927167;28;20727;-85
2023/06/22 03:46:09;;;;;;;206.00;198.27;;;15.90;99.90;;;;;;4917608;29;20956;-85
2023/06/22 03:48:34;;;;;;;228.13;219.40;;;16.00;99.90;;;;;;4927991;28;20236;-86
2023/06/22 03:51:03;;;;;;;227.50;219.07;;;16.10;99.90;;;;;;4927701;28;21229;-85
2023/06/22 03:53:29;;;;;;;224.20;206.07;;;16.10;99.90;;;;;;4911010;29;20233;-85
2023/06/22 03:55:55;;;;;;;241.27;232.77;;;16.10;99.90;;;;;;4942048;28;20218;-85
2023/06/22 03:58:21;;;;;;;221.93;214.23;;;16.20;99.90;;;;;;4927177;29;20206;-86
2023/06/22 04:00:52;;;;;;;217.17;201.67;;;16.30;99.90;;;;;;4910745;29;20312;-86
2023/06/22 04:03:21;;;;;;;196.80;182.70;;;16.20;99.90;;;;;;4942495;28;20685;-85
2023/06/22 04:05:48;;;;;;;181.07;168.07;;;16.00;99.90;;;;;;4927650;28;20218;-85
2023/06/22 04:08:14;;;;;;;182.07;165.70;;;16.00;99.90;;;;;;4926483;29;20269;-85
2023/06/22 04:10:40;;;;;;;171.53;165.17;;;16.00;99.90;;;;;;4941646;28;20703;-86
2023/06/22 04:13:06;;;;;;;160.00;150.87;;;16.20;99.90;;;;;;4928191;29;20186;-86
2023/06/22 04:15:32;;;;;;;160.23;152.30;;;16.30;99.90;;;;;;4928170;28;20229;-85
2023/06/22 04:17:58;;;;;;;163.90;157.93;;;16.30;99.90;;;;;;4926367;29;20225;-85
2023/06/22 04:20:26;;;;;;;164.37;158.17;;;16.40;99.90;;;;;;4928164;28;20234;-86
2023/06/22 04:22:55;;;;;;;160.93;154.70;;;16.50;99.90;;;;;;4942546;28;20189;-85
2023/06/22 04:25:22;;;;;;;170.97;161.97;;;16.60;99.90;;;;;;4926521;29;20609;-85
2023/06/22 04:27:48;;;;;;;174.67;168.03;;;16.80;99.90;;;;;;4925933;29;20715;-86
2023/06/22 04:30:16;;;;;;;188.83;180.30;;;17.10;99.90;;;;;;4927231;28;21167;-86
2023/06/22 04:32:42;;;;;;;175.43;167.27;;;17.20;99.90;;;;;;4923343;29;20293;-86
2023/06/22 04:35:08;;;;;;;181.47;172.20;;;17.40;99.90;;;;;;4910304;29;20269;-85
2023/06/22 04:37:34;;;;;;;173.63;166.73;;;17.40;99.90;;;;;;4926295;29;20193;-86
2023/06/22 04:40:00;;;;;;;163.47;156.33;;;17.40;99.90;;;;;;4926171;29;20231;-86
2023/06/22 04:42:27;;;;;;;149.00;142.23;;;17.40;99.90;;;;;;4929964;29;21143;-85
2023/06/22 04:44:53;;;;;;;128.17;122.33;;;17.70;99.90;;;;;;4914193;29;20879;-86
2023/06/22 04:47:19;;;;;;;121.97;116.37;;;18.00;99.90;;;;;;4929537;29;20250;-85
2023/06/22 04:49:45;;;;;;;106.37;101.80;;;18.10;99.90;;;;;;4928002;28;20284;-86
2023/06/22 04:52:12;;;;;;;125.43;117.83;;;18.20;99.90;;;;;;4910319;29;20256;-86
2023/06/22 04:54:47;;;;;;;121.07;115.13;;;18.30;99.90;;;;;;4928984;28;20222;-86
2023/06/22 04:57:13;;;;;;;137.10;128.93;;;18.60;99.90;;;;;;4942129;28;20841;-86
2023/06/22 04:59:41;;;;;;;108.33;102.87;;;18.80;99.90;;;;;;4926933;29;20332;-86
2023/06/22 05:02:07;;;;;;;94.10;88.57;;;18.80;99.90;;;;;;4930307;28;20236;-85
2023/06/22 05:04:35;;;;;;;83.80;78.83;;;18.90;99.90;;;;;;4945972;29;20643;-85
2023/06/22 05:07:02;;;;;;;80.27;75.50;;;19.10;99.90;;;;;;4944829;28;21095;-86
2023/06/22 05:09:29;;;;;;;71.27;66.93;;;19.20;99.90;;;;;;4930505;28;20233;-85
2023/06/22 05:11:56;;;;;;;76.60;71.67;;;19.50;99.90;;;;;;4929553;29;20699;-85
2023/06/22 05:14:22;;;;;;;76.50;71.93;;;19.80;99.90;;;;;;4930610;28;20234;-85
2023/06/22 05:16:49;;;;;;;77.83;72.87;;;20.50;99.90;;;;;;4930516;28;20190;-86
2023/06/22 05:19:15;;;;;;;84.23;79.43;;;22.20;99.90;;;;;;4930459;29;20715;-85
2023/06/22 05:21:41;;;;;;;89.77;84.03;;;24.40;99.90;;;;;;4928762;29;20260;-85
2023/06/22 05:24:07;;;;;;;86.80;81.83;;;26.50;99.90;;;;;;4927221;28;21217;-85
2023/06/22 05:26:34;;;;;;;72.53;68.17;;;27.80;99.90;;;;;;4928086;28;20234;-86
2023/06/22 05:29:02;;;;;;;73.70;69.47;;;26.80;99.90;;;;;;4928299;28;20609;-85
2023/06/22 05:31:28;;;;;;;69.43;65.77;;;27.10;99.90;;;;;;4926484;29;20186;-86
2023/06/22 05:33:54;;;;;;;61.87;58.57;;;28.10;99.90;;;;;;4927277;29;20228;-86
2023/06/22 05:36:24;;;;;;;50.65;47.65;;;29.20;99.90;;;;;;4942588;28;20226;-85
2023/06/22 05:38:51;;;;;;;42.88;39.53;;;29.10;99.90;;;;;;4927679;29;20229;-87
2023/06/22 05:41:17;;;;;;;37.67;34.92;;;28.90;99.90;;;;;;4927985;28;20222;-88
2023/06/22 05:43:45;;;;;;;34.83;32.28;;;29.30;99.90;;;;;;4921406;28;20337;-88
2023/06/22 05:46:14;;;;;;;35.00;32.45;;;28.90;99.90;;;;;;4929764;29;20190;-90
2023/06/22 05:48:39;;;;;;;31.77;29.35;;;27.80;99.90;;;;;;4913181;29;20234;-89
2023/06/22 05:51:05;;;;;;;31.95;29.35;;;28.40;99.90;;;;;;4927835;29;20566;-87
2023/06/22 05:53:31;;;;;;;31.35;29.15;;;28.70;99.90;;;;;;4929342;29;20259;-88
2023/06/22 05:55:57;;;;;;;29.73;27.33;;;28.70;99.90;;;;;;4913017;28;20210;-89
2023/06/22 05:58:22;;;;;;;31.13;28.90;;;29.00;99.90;;;;;;4929536;29;20194;-88
2023/06/22 06:00:48;;;;;;;33.75;30.95;;;29.30;99.90;;;;;;4928199;29;20696;-88
2023/06/22 06:03:16;;;;;;;31.27;28.65;;;29.90;99.90;;;;;;4944014;28;20257;-89
2023/06/22 06:05:43;;;;;;;29.02;26.88;;;30.20;99.90;;;;;;4928116;29;20214;-89
2023/06/22 06:08:12;;;;;;;29.73;27.63;;;31.30;99.90;;;;;;4944960;28;20234;-88
2023/06/22 06:10:37;;;;;;;26.88;24.75;;;31.20;99.90;;;;;;4930903;29;20281;-87
2023/06/22 06:13:04;;;;;;;25.83;23.52;;;31.00;99.90;;;;;;4929714;29;20240;-86
2023/06/22 06:15:34;;;;;;;23.85;21.85;;;30.30;99.90;;;;;;4927293;29;20217;-86
2023/06/22 06:18:00;;;;;;;26.23;24.08;;;29.80;99.90;;;;;;4927327;28;20289;-88
2023/06/22 06:20:28;;;;;;;27.00;24.92;;;29.30;99.90;;;;;;4930126;28;20214;-87
2023/06/22 06:22:54;;;;;;;25.58;23.42;;;29.50;99.90;;;;;;4929835;28;20200;-86
2023/06/22 06:25:21;;;;;;;26.08;24.02;;;28.70;99.90;;;;;;4928799;29;20201;-87
2023/06/22 06:27:48;;;;;;;26.92;24.67;;;28.40;99.90;;;;;;4938159;28;20770;-87
2023/06/22 06:30:16;;;;;;;24.73;22.52;;;29.80;99.90;;;;;;4927306;28;21109;-87
2023/06/22 06:32:43;;;;;;;22.15;20.00;;;29.30;99.90;;;;;;4926067;29;20233;-86
2023/06/22 06:35:10;;;;;;;21.73;19.52;;;29.30;99.90;;;;;;4926143;29;20305;-85
2023/06/22 06:37:38;;;;;;;20.52;18.65;;;28.80;99.90;;;;;;4910854;29;20202;-85
2023/06/22 06:40:08;;;;;;;19.67;17.70;;;28.80;99.90;;;;;;4925748;29;21040;-85
2023/06/22 06:42:33;;;;;;;18.45;16.73;;;28.80;99.90;;;;;;4926074;28;20395;-85
2023/06/22 06:44:59;;;;;;;20.63;18.38;;;29.20;99.90;;;;;;4925703;29;20229;-86
2023/06/22 06:47:25;;;;;;;19.77;17.90;;;28.60;99.90;;;;;;4926753;28;20642;-86
2023/06/22 06:49:51;;;;;;;18.88;17.08;;;28.60;99.90;;;;;;4925660;28;20662;-84
2023/06/22 06:52:16;;;;;;;17.80;15.98;;;29.30;99.90;;;;;;4925649;29;20226;-85
2023/06/22 06:54:42;;;;;;;18.33;16.63;;;30.00;99.90;;;;;;4924160;29;20233;-85
2023/06/22 06:57:10;;;;;;;18.60;16.70;;;29.80;99.90;;;;;;4908832;29;20229;-86
2023/06/22 06:59:36;;;;;;;18.60;16.85;;;29.60;99.90;;;;;;4924969;29;20285;-86
2023/06/22 07:02:02;;;;;;;17.17;15.50;;;30.00;99.90;;;;;;4924731;28;20384;-85
2023/06/22 07:04:28;;;;;;;20.05;17.83;;;30.20;99.90;;;;;;4909190;29;20205;-85
2023/06/22 07:06:53;;;;;;;18.30;16.65;;;30.90;99.90;;;;;;4907644;29;20337;-86
2023/06/22 07:09:19;;;;;;;21.35;19.40;;;30.80;99.90;;;;;;4925323;28;20225;-85
2023/06/22 07:11:45;;;;;;;18.58;16.75;;;30.50;99.90;;;;;;4924104;29;20232;-85
2023/06/22 07:14:11;;;;;;;19.25;17.50;;;30.50;99.90;;;;;;4925998;28;20255;-85
2023/06/22 07:16:36;;;;;;;22.25;20.20;;;30.30;99.90;;;;;;4908731;29;20201;-86
2023/06/22 07:19:02;;;;;;;21.98;20.25;;;31.00;99.90;;;;;;4924990;28;20225;-85
2023/06/22 07:21:28;;;;;;;27.27;25.23;;;31.50;99.90;;;;;;4925267;28;20256;-86
2023/06/22 07:23:54;;;;;;;25.98;24.25;;;31.70;99.90;;;;;;4924176;29;20300;-85
2023/06/22 07:26:20;;;;;;;28.27;25.83;;;31.60;99.90;;;;;;4939940;28;20323;-86
2023/06/22 07:28:46;;;;;;;30.38;28.15;;;31.20;99.90;;;;;;4925492;28;20218;-87
2023/06/22 07:31:12;;;;;;;31.70;29.33;;;31.10;99.90;;;;;;4916961;29;20190;-86
2023/06/22 07:33:38;;;;;;;29.17;27.33;;;30.90;99.90;;;;;;4925522;29;20704;-86
2023/06/22 07:36:07;;;;;;;31.70;29.58;;;30.80;99.90;;;;;;4925730;28;20312;-86
2023/06/22 07:38:34;;;;;;;35.08;32.67;;;31.10;99.90;;;;;;4924619;28;20234;-86
2023/06/22 07:41:01;;;;;;;34.00;31.90;;;31.10;99.90;;;;;;4925241;28;20312;-85
2023/06/22 07:43:27;;;;;;;30.35;28.60;;;30.50;99.90;;;;;;4926146;29;20942;-85
2023/06/22 07:45:53;;;;;;;35.72;33.65;;;30.10;99.90;;;;;;4907621;29;20217;-85
2023/06/22 07:48:21;;;;;;;32.08;29.95;;;29.20;99.90;;;;;;4924223;29;20631;-85
2023/06/22 07:50:47;;;;;;;36.03;33.80;;;29.00;99.90;;;;;;4939565;28;20237;-86
2023/06/22 07:53:12;;;;;;;34.05;31.75;;;28.80;99.90;;;;;;4924515;28;20606;-86
2023/06/22 07:55:38;;;;;;;28.45;26.58;;;29.50;99.90;;;;;;4922740;28;20202;-85
2023/06/22 07:58:04;;;;;;;35.03;32.53;;;29.60;99.90;;;;;;4922959;29;20213;-85
2023/06/22 08:00:30;;;;;;;33.78;31.15;;;29.60;99.90;;;;;;4920856;29;20257;-86
2023/06/22 08:02:56;;;;;;;31.25;28.90;;;29.80;99.90;;;;;;4921817;29;20309;-85
2023/06/22 08:05:22;;;;;;;29.55;27.30;;;29.50;99.90;;;;;;4924840;28;20743;-86
2023/06/22 08:07:48;;;;;;;30.92;28.67;;;28.70;99.90;;;;;;4923759;28;20302;-86
2023/06/22 08:10:16;;;;;;;28.95;27.15;;;28.70;99.90;;;;;;4925917;29;20667;-90
2023/06/22 08:12:42;;;;;;;27.55;25.80;;;29.30;99.90;;;;;;4925623;29;20253;-92
2023/06/22 08:15:09;;;;;;;31.75;29.73;;;29.40;99.90;;;;;;4910355;29;20633;-93
2023/06/22 08:17:39;;;;;;;29.58;27.70;;;29.30;99.90;;;;;;4942553;28;20333;-94
2023/06/22 08:20:10;;;;;;;29.63;27.63;;;29.20;99.90;;;;;;4941963;28;20593;-92
2023/06/22 08:22:38;;;;;;;24.75;23.02;;;29.10;99.90;;;;;;4928543;29;20538;-91
2023/06/22 08:25:06;;;;;;;27.65;25.67;;;28.90;99.90;;;;;;4928215;29;20210;-91
2023/06/22 08:27:32;;;;;;;21.85;20.42;;;28.70;99.90;;;;;;4929310;28;20640;-93
2023/06/22 08:29:58;;;;;;;18.92;17.70;;;28.90;99.90;;;;;;4942735;28;20225;-92
2023/06/22 08:32:28;;;;;;;20.08;18.65;;;28.00;99.90;;;;;;4942738;28;20270;-92
2023/06/22 08:34:56;;;;;;;23.05;21.48;;;28.40;99.90;;;;;;4927074;28;20707;-91
2023/06/22 08:37:30;;;;;;;22.23;20.55;;;28.50;99.90;;;;;;4911779;29;20201;-93
2023/06/22 08:39:59;;;;;;;23.00;21.40;;;28.00;99.90;;;;;;4927619;29;20214;-92
2023/06/22 08:42:25;;;;;;;22.58;20.70;;;27.70;99.90;;;;;;4927009;29;20272;-94
2023/06/22 08:44:51;;;;;;;20.58;19.08;;;28.20;99.90;;;;;;4919613;29;20214;-92
2023/06/22 08:47:17;;;;;;;20.50;18.92;;;27.70;99.90;;;;;;4926382;29;20250;-91
2023/06/22 08:49:43;;;;;;;21.98;20.05;;;28.10;99.90;;;;;;4941877;28;20194;-91
2023/06/22 08:52:09;;;;;;;20.45;18.95;;;28.20;99.90;;;;;;4924914;29;20194;-92
2023/06/22 08:54:38;;;;;;;16.95;15.65;;;28.10;99.90;;;;;;4926781;29;20679;-92
2023/06/22 08:57:04;;;;;;;17.83;16.67;;;27.90;99.90;;;;;;4928050;28;20703;-93
2023/06/22 08:59:30;;;;;;;20.52;18.88;;;28.50;99.90;;;;;;4942497;28;20288;-91
2023/06/22 09:01:56;;;;;;;20.45;18.95;;;29.00;99.90;;;;;;4942861;28;20723;-92
2023/06/22 09:04:24;;;;;;;19.83;18.30;;;28.40;99.90;;;;;;4895841;29;20208;-91
2023/06/22 09:06:52;;;;;;;16.35;15.20;;;27.90;99.90;;;;;;4942017;28;20218;-92
2023/06/22 09:09:18;;;;;;;16.92;15.55;;;27.90;99.90;;;;;;4925833;29;20249;-91
2023/06/22 09:11:44;;;;;;;18.55;17.02;;;27.60;99.90;;;;;;4926855;28;20229;-91
2023/06/22 09:14:11;;;;;;;17.55;16.35;;;28.60;99.90;;;;;;4941687;28;20680;-91
2023/06/22 09:16:37;;;;;;;16.00;14.93;;;28.30;99.90;;;;;;4926296;29;20201;-88
2023/06/22 09:19:03;;;;;;;18.17;17.00;;;28.20;99.90;;;;;;4926495;29;20230;-89
2023/06/22 09:21:29;;;;;;;14.57;13.48;;;28.30;99.90;;;;;;4925604;29;20229;-89
2023/06/22 09:23:55;;;;;;;15.30;14.23;;;28.70;99.90;;;;;;4927864;28;20703;-89
2023/06/22 09:26:24;;;;;;;16.92;15.63;;;28.10;99.90;;;;;;4901034;28;21072;-90
2023/06/22 09:28:50;;;;;;;17.35;16.10;;;28.60;99.90;;;;;;4946411;28;20209;-90
2023/06/22 09:31:16;;;;;;;19.13;17.65;;;28.10;99.90;;;;;;4930133;29;20225;-92
2023/06/22 09:33:43;;;;;;;17.15;16.00;;;28.70;99.90;;;;;;4929457;29;20241;-91
2023/06/22 09:36:08;;;;;;;18.92;17.52;;;28.10;99.90;;;;;;4929397;29;20254;-89
2023/06/22 09:38:38;;;;;;;18.92;17.60;;;28.20;99.90;;;;;;4928095;29;20230;-86
2023/06/22 09:41:04;;;;;;;17.00;15.90;;;28.10;99.90;;;;;;4929157;28;20221;-88
2023/06/22 09:43:32;;;;;;;19.48;18.20;;;27.90;99.90;;;;;;4943352;29;20666;-90
2023/06/22 09:45:58;;;;;;;20.95;19.65;;;28.30;99.90;;;;;;4943051;28;20222;-91
2023/06/22 09:48:23;;;;;;;18.85;17.40;;;28.30;99.90;;;;;;4928247;29;20313;-92
2023/06/22 09:50:50;;;;;;;19.27;18.13;;;28.20;99.90;;;;;;4930105;29;20230;-92
2023/06/22 09:53:17;;;;;;;17.98;16.52;;;27.80;99.90;;;;;;4908755;29;20721;-90
2023/06/22 09:55:43;;;;;;;20.33;18.70;;;27.40;99.90;;;;;;4942900;28;20205;-91
2023/06/22 09:58:10;;;;;;;17.90;16.55;;;27.40;99.90;;;;;;4932292;29;20182;-87
2023/06/22 10:00:37;;;;;;;19.20;18.05;;;27.60;99.90;;;;;;4931267;29;20241;-90
2023/06/22 10:03:04;;;;;;;18.95;17.73;;;27.30;99.90;;;;;;4933733;29;20739;-89
2023/06/22 10:05:33;;;;;;;17.88;16.83;;;27.10;99.90;;;;;;4928612;29;20722;-90
2023/06/22 10:08:03;;;;;;;17.33;16.08;;;27.10;99.90;;;;;;4948712;28;21079;-91
2023/06/22 10:10:33;;;;;;;17.15;16.25;;;27.00;99.90;;;;;;4948566;28;20194;-89
2023/06/22 10:13:10;;;;;;;17.27;16.05;;;27.10;99.90;;;;;;4916148;29;20213;-91
2023/06/22 10:15:36;;;;;;;19.30;18.23;;;27.20;99.90;;;;;;4933140;29;20217;-91
2023/06/22 10:18:03;;;;;;;16.00;15.00;;;26.60;99.90;;;;;;4949597;28;20237;-90
2023/06/22 10:20:33;;;;;;;19.05;18.05;;;27.00;99.90;;;;;;4948277;28;20235;-90
2023/06/22 10:22:59;;;;;;;18.38;17.52;;;27.40;99.90;;;;;;4932688;28;21173;-89
2023/06/22 10:25:30;;;;;;;17.02;16.13;;;26.90;99.90;;;;;;4934076;29;20262;-89
2023/06/22 10:27:58;;;;;;;17.65;16.77;;;27.00;99.90;;;;;;4948052;28;20233;-88
2023/06/22 10:30:24;;;;;;;17.63;16.63;;;27.00;99.90;;;;;;4932429;29;20257;-90
2023/06/22 10:32:50;;;;;;;16.90;16.10;;;26.50;99.90;;;;;;4931470;29;20308;-90
2023/06/22 10:35:21;;;;;;;20.27;19.00;;;26.60;99.90;;;;;;4931521;29;20222;-87
2023/06/22 10:37:49;;;;;;;19.60;18.58;;;26.50;99.90;;;;;;4913916;28;20218;-91
2023/06/22 10:40:16;;;;;;;19.42;18.58;;;26.10;99.90;;;;;;4932475;29;20193;-91
2023/06/22 10:42:44;;;;;;;18.40;17.40;;;26.20;99.90;;;;;;4931234;29;20229;-90
2023/06/22 10:45:10;;;;;;;19.17;18.27;;;26.00;99.90;;;;;;4929268;29;20217;-88
2023/06/22 10:47:36;;;;;;;18.15;17.25;;;26.20;99.90;;;;;;4930304;28;20241;-90
2023/06/22 10:50:04;;;;;;;18.85;17.88;;;26.20;99.90;;;;;;4929953;28;20325;-89
2023/06/22 10:52:35;;;;;;;20.13;18.90;;;25.80;99.90;;;;;;4929654;29;20196;-92
2023/06/22 10:55:01;;;;;;;16.45;15.75;;;25.70;99.90;;;;;;4944755;29;20788;-90
2023/06/22 10:57:29;;;;;;;18.80;18.00;;;25.80;99.90;;;;;;4929989;29;20222;-91
2023/06/22 10:59:57;;;;;;;17.13;16.45;;;25.60;99.90;;;;;;4912873;28;20378;-92
2023/06/22 11:02:25;;;;;;;19.70;18.88;;;26.20;99.90;;;;;;4921302;29;20341;-89
2023/06/22 11:04:51;;;;;;;16.30;15.30;;;26.10;99.90;;;;;;4911747;28;20201;-89
2023/06/22 11:07:21;;;;;;;14.82;13.93;;;26.70;99.90;;;;;;4930010;29;20276;-90
2023/06/22 11:09:49;;;;;;;15.73;14.70;;;27.20;99.90;;;;;;4929527;29;20214;-90
2023/06/22 11:12:15;;;;;;;17.98;17.00;;;27.20;99.90;;;;;;4928649;29;20273;-90
2023/06/22 11:14:41;;;;;;;17.75;16.65;;;26.30;99.90;;;;;;4929429;29;20218;-90
2023/06/22 11:17:07;;;;;;;17.83;16.88;;;25.80;99.90;;;;;;4931707;29;20258;-90
2023/06/22 11:19:36;;;;;;;16.17;15.07;;;25.90;99.90;;;;;;4930479;29;20198;-92
2023/06/22 11:22:03;;;;;;;19.73;18.75;;;25.80;99.90;;;;;;4913535;29;20233;-91
2023/06/22 11:24:29;;;;;;;17.65;16.63;;;25.10;99.90;;;;;;4914918;29;20360;-90
2023/06/22 11:26:55;;;;;;;18.33;17.08;;;24.90;99.90;;;;;;4923172;28;20296;-91
2023/06/22 11:29:22;;;;;;;15.60;14.63;;;25.20;99.90;;;;;;4944454;28;20233;-92
2023/06/22 11:31:48;;;;;;;16.23;15.35;;;25.60;99.90;;;;;;4929174;28;20182;-90
2023/06/22 11:34:15;;;;;;;16.85;16.05;;;25.80;99.90;;;;;;4943115;29;20644;-88
2023/06/22 11:36:41;;;;;;;17.60;16.67;;;25.80;99.90;;;;;;4928391;28;20723;-90
2023/06/22 11:39:09;;;;;;;18.27;17.50;;;25.90;99.90;;;;;;4929164;29;20221;-90
2023/06/22 11:41:41;;;;;;;20.17;19.30;;;25.20;99.90;;;;;;4921004;29;20225;-90
2023/06/22 11:44:08;;;;;;;16.25;15.55;;;24.70;99.90;;;;;;4928722;29;20245;-88
2023/06/22 11:46:34;;;;;;;20.25;19.27;;;24.90;99.90;;;;;;4929364;29;20194;-89
2023/06/22 11:49:02;;;;;;;17.92;17.00;;;24.90;99.90;;;;;;4928605;28;20270;-91
2023/06/22 11:51:31;;;;;;;20.63;19.52;;;24.70;99.90;;;;;;4929645;28;20233;-87
2023/06/22 11:53:58;;;;;;;17.60;16.73;;;24.90;99.90;;;;;;4929490;28;20222;-88
2023/06/22 11:56:25;;;;;;;21.65;20.63;;;24.60;99.90;;;;;;4929865;28;20550;-90
2023/06/22 11:58:52;;;;;;;17.98;16.77;;;24.40;99.90;;;;;;4928274;28;20186;-90
2023/06/22 12:01:21;;;;;;;18.13;17.33;;;24.70;99.90;;;;;;4928106;29;20292;-89
2023/06/22 12:03:48;;;;;;;17.45;16.65;;;24.90;99.90;;;;;;4920940;29;20228;-89
2023/06/22 12:06:14;;;;;;;17.50;16.73;;;24.90;99.90;;;;;;4933605;28;20233;-90
2023/06/22 12:08:43;;;;;;;17.70;16.90;;;25.00;99.90;;;;;;4928674;29;20236;-89
2023/06/22 12:11:12;;;;;;;18.50;17.35;;;25.10;99.90;;;;;;4938497;28;20225;-88
2023/06/22 12:13:40;;;;;;;16.40;15.60;;;24.90;99.90;;;;;;4929827;29;20194;-88
2023/06/22 12:16:09;;;;;;;17.95;17.05;;;25.10;99.90;;;;;;4928326;29;20217;-89
2023/06/22 12:18:44;;;;;;;17.48;16.67;;;25.30;99.90;;;;;;4929792;28;20233;-89
2023/06/22 12:21:10;;;;;;;17.02;16.02;;;25.40;99.90;;;;;;4941275;28;20281;-90